Takamatsu Airport, Japan

2:26 PM JST on September 01, 2015 (GMT +0900)
Takamatsu | | Change Station
CLOSE
Current Station
Airport
Location: Takamatsu Airport,
Elevation: 617 ft
Nearby Weather Stations

Elev 617 ft 34.21 °N, 134.02 °E | Updated 12 minutes ago

Light Rain Showers
Light Showers Rain
72 °F
Feels Like 72 °F
N
8
Wind Variable Wind from WSW

Today
High -- | Low -- °F
--% Chance of Precip.
Yesterday
High -- | Low -- °F
Precip. -- in
5:36 AM 6:31 PM
Waning Gibbous, 91% visible
Pressure 29.83 in
Visibility 5.0 miles
Clouds Few 200 ft
Scattered Clouds 1000 ft
Few 2000 ft
Mostly Cloudy 2500 ft
Dew Point 70 °F
Humidity 94%
Rainfall 0.00 in
Snow Depth Not available.
UV 4 out of 12
Pollen Not available.
Air Quality Not available.
Flu Activity Not available.
SPECI RJOT 010514Z 25007KT 8000 R26/1400VP1800U -SHRA FEW002 SCT010 FEW020CB BKN025 22/21 Q1010 RMK 1ST002 3CU010 1CB020 5CU025 A2985 CB 20KM N MOV NE
Pressure 29.83 in
Visibility 5.0 miles
Clouds Few 200 ft
Scattered Clouds 1000 ft
Few 2000 ft
Mostly Cloudy 2500 ft
Dew Point 70 °F
Humidity 94%
Rainfall 0.00 in
Snow Depth Not available.
UV 4 out of 12
Pollen Not available.
Air Quality Not available.
Flu Activity Not available.
SPECI RJOT 010514Z 25007KT 8000 R26/1400VP1800U -SHRA FEW002 SCT010 FEW020CB BKN025 22/21 Q1010 RMK 1ST002 3CU010 1CB020 5CU025 A2985 CB 20KM N MOV NE

10-Day Weather Forecast

×

Almanac

Astronomy

Sep. 01, 2015 Rise Set
Actual Time
Civil Twilight
Nautical Twilight
Astronomical Twilight
Moon
Length of Visible Light
Length of Day
Tomorrow will be .
, % of the Moon is Illuminated

Today's Extremes

Country Highs Country Lows

Community

WunderPhotos

Upload Photos

1,851,481 photos uploaded!

WunderBlogs® & News

Nearby

Air Quality

  Air Quality AQ Index Pollutant
Not available.

Snow Depth

Station Depth Elevation

Earthquake Activity

City Distance Mag. Time & Date
Minimum magnitude displayed is 2.5.

Coastal Water Temperatures

Place Temperature

Stations

Nearby Weather Stations

Station Location Temp. Windchill Dew Point Humidity Wind Precip. Elev Updated Type